Airfield :
LOGIN :

Register | Disclaimer

   EN    FR    IT 

 










Legend :    VFR   Marginal VFR   IFR   Intensive IFR   Very Intensive IFR
Visi :
Ceiling :
>= 8 km
>= 3000ft
5 to 8 km
1000 to 3000 ft
1500m to 5 km
500 to 1000 ft
800 to 1500m
200 to 500 ft
< 800m
< 200 ft
Symbols :   Thunderstorms  Fog  Heavy snow  Heavy precipitations  Wind > 20 kt
SIGMETs :     Misc.  Thunderstorms  Icing  Turbulence  Mountain Waves  Volcanic Ashes






- Airport Elevation : 963 ft
- IATA code : TGM


LRTM - Transilvania Târgu Mureş Int.

CURRENT METAR :
  • 290730Z 00000KT 8000 FEW002 13/13 Q1011 R07/29//95

EXPIRED METARs :
  • 290700Z 00000KT 6000 FEW002 SCT010 13/12 Q1011 R07/29//95
  • 290630Z 02001KT 4500 BR SCT001 SCT007 12/12 Q1011 R07/29//95
  • 290600Z 09003KT 050V120 0300 R07/0500D FG BKN001 12/12 Q1011 R07/29//95
  • 290530Z 00000KT 0200 R07/0225N FG BKN001 12/12 Q1011 R07/29//95
  • 290500Z VRB02KT 0350 R07/0400N FG BKN001 12/12 Q1011 R07/29//95

TAF TAF LRTM
Valid from the 29 at 06:00 until the 29 at 15:00 UTC


290500Z 2906/2915 VRB04KT 0600 FG BKN001
BECMG 2907/2909 29010KT 5000 -RA SCT010 BKN035
TEMPO 2909/2914 3000 SHRA SCT005 SCT035CB



MET'MAP, your aeronautical weather chart ! - Copyright ORBIFLY December 2007 - Disclaimer

ORBIFLY MET'MAP TEAM :

Programming & Development : Alexandra Zaïnal
Concept & original design : Baudouin d'Aumeries
Assistance for programming : Marc-Olivier Méhu
Technical & hardware support : Manuel Goepfert

Contact : metmap@orbifly.com




SOURCES & CREDITS :

   NOAA